Time;durP1;ratioP1;P1;durP2;ratioP2;P2;SDS_P1;SDS_P2;PMS_P1;PMS_P2;Temp;Humidity;BMP_temperature;BMP_pressure;BME280_temperature;BME280_humidity;BME280_pressure;Samples;Min_cycle;Max_cycle;Signal;HPM_P1;HPM_P2
2023/10/08 00:01:13;;;;;;;2.57;1.67;;;13.60;99.90;;;;;;5054202;28;20418;-70
2023/10/08 00:03:48;;;;;;;2.73;2.20;;;13.60;99.90;;;;;;5054114;28;20540;-70
2023/10/08 00:06:20;;;;;;;2.00;1.77;;;13.60;99.90;;;;;;5054036;28;20461;-70
2023/10/08 00:08:49;;;;;;;2.83;2.10;;;13.60;99.90;;;;;;5053881;28;20476;-70
2023/10/08 00:11:18;;;;;;;2.33;1.80;;;13.60;99.90;;;;;;5053954;28;20469;-70
2023/10/08 00:13:48;;;;;;;3.77;2.20;;;13.60;99.90;;;;;;5053857;28;20560;-70
2023/10/08 00:16:17;;;;;;;2.53;2.10;;;13.60;99.90;;;;;;5053721;28;20462;-70
2023/10/08 00:18:50;;;;;;;2.53;2.20;;;13.60;99.90;;;;;;5053498;28;20438;-70
2023/10/08 00:21:26;;;;;;;2.70;2.30;;;13.60;99.90;;;;;;5053517;28;20848;-70
2023/10/08 00:23:58;;;;;;;3.33;2.47;;;13.60;99.90;;;;;;5053507;28;20829;-70
2023/10/08 00:26:29;;;;;;;3.50;2.40;;;13.60;99.90;;;;;;5053441;28;20454;-70
2023/10/08 00:29:00;;;;;;;3.63;2.60;;;13.60;99.90;;;;;;5053444;28;20510;-70
2023/10/08 00:31:32;;;;;;;3.30;2.33;;;13.60;99.90;;;;;;5053326;28;20466;-70
2023/10/08 00:34:01;;;;;;;5.50;3.10;;;13.50;99.90;;;;;;5052373;28;20437;-70
2023/10/08 00:36:31;;;;;;;5.27;2.87;;;13.50;99.90;;;;;;5053135;28;20449;-70
2023/10/08 00:39:00;;;;;;;3.57;2.60;;;13.40;99.90;;;;;;5052092;28;20446;-70
2023/10/08 00:41:30;;;;;;;3.73;2.70;;;13.40;99.90;;;;;;5053143;28;20449;-70
2023/10/08 00:44:00;;;;;;;5.07;2.60;;;13.40;99.90;;;;;;5052049;28;20816;-70
2023/10/08 00:46:31;;;;;;;6.27;2.87;;;13.40;99.90;;;;;;5053158;28;20465;-70
2023/10/08 00:49:19;;;;;;;3.90;2.50;;;13.40;99.90;;;;;;5053469;28;20452;-70
2023/10/08 00:52:00;;;;;;;3.60;3.13;;;13.40;99.90;;;;;;5051840;28;20557;-70
2023/10/08 00:54:32;;;;;;;6.57;3.23;;;13.30;99.90;;;;;;5051814;28;20449;-70
2023/10/08 00:57:05;;;;;;;5.10;2.90;;;13.30;99.90;;;;;;5053690;28;20444;-70
2023/10/08 00:59:42;;;;;;;5.60;3.00;;;13.30;99.90;;;;;;5056005;28;20867;-70
2023/10/08 01:02:14;;;;;;;2.90;2.60;;;13.30;99.90;;;;;;5056014;28;20532;-70
2023/10/08 01:04:44;;;;;;;3.93;2.77;;;13.30;99.90;;;;;;5055909;28;20496;-70
2023/10/08 01:07:16;;;;;;;6.10;3.10;;;13.20;99.90;;;;;;5055822;28;20495;-70
2023/10/08 01:09:50;;;;;;;3.60;3.20;;;13.30;99.90;;;;;;5057312;28;20994;-70
2023/10/08 01:12:23;;;;;;;4.00;3.60;;;13.20;99.90;;;;;;5055729;28;20484;-70
2023/10/08 01:14:53;;;;;;;4.00;3.20;;;13.30;99.90;;;;;;5055628;28;20877;-70
2023/10/08 01:17:25;;;;;;;4.97;3.50;;;13.20;99.90;;;;;;5056934;28;20509;-70
2023/10/08 01:19:59;;;;;;;4.20;3.20;;;13.30;99.90;;;;;;5057138;28;20884;-70
2023/10/08 01:22:29;;;;;;;7.90;4.13;;;13.20;99.90;;;;;;5055547;28;20438;-70
2023/10/08 01:25:01;;;;;;;4.83;3.57;;;13.20;99.90;;;;;;5057138;28;20799;-70
2023/10/08 01:27:34;;;;;;;4.07;3.67;;;13.30;99.90;;;;;;5056951;28;20426;-70
2023/10/08 01:30:11;;;;;;;4.30;3.60;;;13.20;99.90;;;;;;5057238;28;20422;-70
2023/10/08 01:32:40;;;;;;;4.03;3.63;;;13.20;99.90;;;;;;5055659;28;20810;-70
2023/10/08 01:35:22;;;;;;;5.10;4.57;;;13.30;99.90;;;;;;5055268;28;20836;-70
2023/10/08 01:37:56;;;;;;;4.33;3.93;;;13.30;99.90;;;;;;5056729;28;20918;-69
2023/10/08 01:40:25;;;;;;;4.30;3.70;;;13.30;99.90;;;;;;5056344;28;20456;-70
2023/10/08 01:42:53;;;;;;;5.07;4.30;;;13.30;99.90;;;;;;5056970;28;20434;-70
2023/10/08 01:45:24;;;;;;;6.90;4.30;;;13.30;99.90;;;;;;5055115;28;21017;-70
2023/10/08 01:47:54;;;;;;;6.07;4.60;;;13.30;99.90;;;;;;5061420;28;20479;-70
2023/10/08 01:50:24;;;;;;;7.90;4.97;;;13.30;99.90;;;;;;5060416;28;20468;-70
2023/10/08 01:52:54;;;;;;;5.37;4.87;;;13.30;99.90;;;;;;5059238;28;20437;-70
2023/10/08 01:55:23;;;;;;;6.20;5.30;;;13.20;99.90;;;;;;5058860;28;20458;-70
2023/10/08 01:57:52;;;;;;;6.67;5.50;;;13.30;99.90;;;;;;5056086;28;20450;-70
2023/10/08 02:00:22;;;;;;;7.10;6.40;;;13.20;99.90;;;;;;5055935;28;20446;-70
2023/10/08 02:02:51;;;;;;;5.90;4.93;;;13.20;99.90;;;;;;5057496;28;20436;-70
2023/10/08 02:05:20;;;;;;;7.90;7.10;;;13.20;99.90;;;;;;5057748;28;20466;-70
2023/10/08 02:07:51;;;;;;;7.23;6.40;;;13.20;99.90;;;;;;5054766;28;20438;-70
2023/10/08 02:10:22;;;;;;;7.93;6.87;;;13.20;99.90;;;;;;5056409;28;20875;-70
2023/10/08 02:12:50;;;;;;;9.40;8.00;;;13.10;99.90;;;;;;5056675;28;20553;-70
2023/10/08 02:15:18;;;;;;;9.60;6.73;;;13.20;99.90;;;;;;5054790;28;20462;-70
2023/10/08 02:17:46;;;;;;;8.60;7.70;;;13.20;99.90;;;;;;5055931;28;20438;-69
2023/10/08 02:20:16;;;;;;;9.30;8.17;;;13.20;99.90;;;;;;5054857;28;20964;-70
2023/10/08 02:22:45;;;;;;;11.73;8.30;;;13.20;99.90;;;;;;5054556;28;20484;-70
2023/10/08 02:25:13;;;;;;;9.50;7.60;;;13.10;99.90;;;;;;5054621;28;20465;-70
2023/10/08 02:27:43;;;;;;;7.73;6.93;;;13.20;99.90;;;;;;5054449;28;20468;-70
2023/10/08 02:30:12;;;;;;;10.20;7.40;;;13.10;99.90;;;;;;5056114;28;20785;-70
2023/10/08 02:32:42;;;;;;;9.00;6.43;;;13.10;99.90;;;;;;5054208;28;20469;-70
2023/10/08 02:35:12;;;;;;;11.40;7.57;;;13.10;99.90;;;;;;5055612;28;20454;-70
2023/10/08 02:37:41;;;;;;;8.37;6.17;;;13.10;99.90;;;;;;5055448;28;20434;-70
2023/10/08 02:40:16;;;;;;;6.17;5.57;;;13.10;99.90;;;;;;5053987;28;20453;-70
2023/10/08 02:42:47;;;;;;;9.77;6.80;;;13.20;99.90;;;;;;5055687;28;20509;-70
2023/10/08 02:45:16;;;;;;;8.57;6.30;;;13.10;99.90;;;;;;5055315;28;20461;-70
2023/10/08 02:47:45;;;;;;;6.10;5.50;;;13.10;99.90;;;;;;5054000;28;20520;-70
2023/10/08 02:50:16;;;;;;;7.07;5.60;;;13.20;99.90;;;;;;5055418;28;20454;-70
2023/10/08 02:52:45;;;;;;;7.03;5.93;;;13.20;99.90;;;;;;5055377;28;20460;-70
2023/10/08 02:55:24;;;;;;;6.70;4.93;;;13.20;99.90;;;;;;5053762;28;20975;-69
2023/10/08 02:57:53;;;;;;;7.47;5.83;;;13.20;99.90;;;;;;5055327;28;20429;-70
2023/10/08 03:00:22;;;;;;;7.00;4.90;;;13.10;99.90;;;;;;5055302;28;20469;-70
2023/10/08 03:02:51;;;;;;;7.57;5.00;;;13.10;99.90;;;;;;5053670;28;20488;-70
2023/10/08 03:05:22;;;;;;;5.70;4.50;;;13.10;99.90;;;;;;5053536;28;20470;-70
2023/10/08 03:07:51;;;;;;;7.53;5.00;;;13.10;99.90;;;;;;5053626;28;20960;-70
2023/10/08 03:10:19;;;;;;;6.23;5.03;;;13.20;99.90;;;;;;5053484;28;20438;-70
2023/10/08 03:12:47;;;;;;;6.20;4.20;;;13.10;99.90;;;;;;5053417;28;20849;-70
2023/10/08 03:15:28;;;;;;;4.60;4.03;;;13.10;99.90;;;;;;5054791;28;20624;-70
2023/10/08 03:18:07;;;;;;;5.60;3.83;;;13.10;99.90;;;;;;5053437;28;20442;-70
2023/10/08 03:20:42;;;;;;;5.40;4.17;;;13.10;99.90;;;;;;5053550;28;20472;-70
2023/10/08 03:23:23;;;;;;;8.70;5.27;;;13.10;99.90;;;;;;5055137;28;20472;-70
2023/10/08 03:25:58;;;;;;;6.43;4.50;;;13.10;99.90;;;;;;5053219;28;20489;-70
2023/10/08 03:28:27;;;;;;;7.07;4.67;;;13.10;99.90;;;;;;5054492;28;20418;-70
2023/10/08 03:31:03;;;;;;;7.30;4.57;;;13.10;99.90;;;;;;5054613;28;20514;-70
2023/10/08 03:33:35;;;;;;;7.17;4.60;;;13.10;99.90;;;;;;5053058;28;20462;-70
2023/10/08 03:36:14;;;;;;;6.10;5.27;;;13.10;99.90;;;;;;5054364;28;20993;-70
2023/10/08 03:38:51;;;;;;;6.40;5.10;;;13.10;99.90;;;;;;5053074;28;20458;-70
2023/10/08 03:41:27;;;;;;;7.00;5.47;;;13.10;99.90;;;;;;5054172;28;20442;-70
2023/10/08 03:44:01;;;;;;;5.80;4.63;;;13.10;99.90;;;;;;5052858;28;20853;-70
2023/10/08 03:46:32;;;;;;;6.40;4.70;;;13.10;99.90;;;;;;5054020;28;20449;-71
2023/10/08 03:49:04;;;;;;;7.00;4.60;;;13.10;99.90;;;;;;5054701;28;20846;-70
2023/10/08 03:51:39;;;;;;;6.40;5.50;;;13.00;99.90;;;;;;5054155;28;20422;-70
2023/10/08 03:54:16;;;;;;;7.90;5.37;;;13.00;99.90;;;;;;5054564;28;21012;-70
2023/10/08 03:56:48;;;;;;;8.53;4.97;;;13.00;99.90;;;;;;5054501;28;20422;-70
2023/10/08 03:59:29;;;;;;;6.40;5.00;;;13.00;99.90;;;;;;5054259;28;20418;-70
2023/10/08 04:02:13;;;;;;;10.67;5.27;;;13.00;99.90;;;;;;5054159;28;20505;-70
2023/10/08 04:04:51;;;;;;;6.13;4.83;;;13.00;99.90;;;;;;5054022;28;20465;-70
2023/10/08 04:07:28;;;;;;;6.63;5.30;;;13.00;99.90;;;;;;5052510;28;20953;-70
2023/10/08 04:10:29;;;;;;;7.20;5.77;;;13.00;99.90;;;;;;5053954;28;20422;-70
2023/10/08 04:12:54;;;;;;;6.20;4.77;;;13.00;99.90;;;;;;5053495;28;20474;-70
2023/10/08 04:15:23;;;;;;;9.30;5.73;;;13.00;99.90;;;;;;5053542;28;20450;-70
2023/10/08 04:17:52;;;;;;;6.67;5.77;;;13.00;99.90;;;;;;5053549;28;20797;-70
2023/10/08 04:20:38;;;;;;;7.10;5.57;;;13.00;99.90;;;;;;5053538;28;20445;-70
2023/10/08 04:23:13;;;;;;;9.70;5.60;;;13.00;99.90;;;;;;5053828;28;20515;-70
2023/10/08 04:25:43;;;;;;;8.03;6.00;;;13.00;99.90;;;;;;5053505;28;20489;-70
2023/10/08 04:28:14;;;;;;;8.23;5.90;;;13.00;99.90;;;;;;5053716;28;20509;-70
2023/10/08 04:30:43;;;;;;;9.20;5.90;;;13.00;99.90;;;;;;5053699;28;20774;-70
2023/10/08 04:33:13;;;;;;;8.53;6.17;;;13.00;99.90;;;;;;5053353;28;20881;-70
2023/10/08 04:35:48;;;;;;;10.47;6.53;;;13.00;99.90;;;;;;5053348;28;20908;-70
2023/10/08 04:38:18;;;;;;;10.00;6.43;;;13.00;99.90;;;;;;5053654;28;20437;-70
2023/10/08 04:40:51;;;;;;;7.80;6.40;;;13.00;99.90;;;;;;5053180;28;20982;-70
2023/10/08 04:43:24;;;;;;;8.53;6.17;;;12.90;99.90;;;;;;5053481;28;20772;-70
2023/10/08 04:45:53;;;;;;;9.23;6.33;;;13.00;99.90;;;;;;5053216;28;20461;-70
2023/10/08 04:48:24;;;;;;;9.37;5.60;;;12.90;99.90;;;;;;5053181;28;20442;-70
2023/10/08 04:50:58;;;;;;;8.07;5.47;;;13.00;99.90;;;;;;5052503;28;20454;-70
2023/10/08 04:53:35;;;;;;;8.90;6.23;;;12.90;99.90;;;;;;5051938;28;20926;-71
2023/10/08 04:56:06;;;;;;;7.17;5.20;;;12.90;99.90;;;;;;5053207;28;20457;-70
2023/10/08 04:58:36;;;;;;;8.40;5.53;;;13.00;99.90;;;;;;5051795;28;20872;-70
2023/10/08 05:06:50;;;;;;;9.17;5.17;;;12.90;99.90;;;;;;5047062;28;20468;-70
2023/10/08 05:09:22;;;;;;;6.57;4.50;;;13.00;99.90;;;;;;5053270;28;20517;-70
2023/10/08 05:12:11;;;;;;;10.30;5.20;;;12.90;99.90;;;;;;5053226;28;20441;-70
2023/10/08 05:14:55;;;;;;;8.53;5.00;;;13.00;99.90;;;;;;5053188;28;20457;-70
2023/10/08 05:17:32;;;;;;;8.87;4.37;;;12.90;99.90;;;;;;5052924;28;20904;-70
2023/10/08 05:20:17;;;;;;;8.17;4.43;;;12.90;99.90;;;;;;5052956;28;20421;-70
2023/10/08 05:22:55;;;;;;;7.43;3.90;;;12.90;99.90;;;;;;5053235;28;20476;-71
2023/10/08 05:25:35;;;;;;;8.40;4.73;;;12.90;99.90;;;;;;5053109;28;20458;-71
2023/10/08 05:28:09;;;;;;;7.87;4.40;;;12.90;99.90;;;;;;5053060;28;20480;-70
2023/10/08 05:30:41;;;;;;;6.90;4.40;;;12.90;99.90;;;;;;5053413;28;20418;-70
2023/10/08 05:33:23;;;;;;;6.53;3.90;;;13.00;99.90;;;;;;5052992;28;20457;-70
2023/10/08 05:36:09;;;;;;;6.53;3.50;;;13.00;99.90;;;;;;5052897;28;20872;-70
2023/10/08 05:38:59;;;;;;;6.93;3.90;;;12.90;99.90;;;;;;5053061;28;20422;-70
2023/10/08 05:41:38;;;;;;;6.90;3.50;;;13.00;99.90;;;;;;5052649;28;20438;-70
2023/10/08 05:44:23;;;;;;;5.20;3.67;;;12.90;99.90;;;;;;5054667;28;20963;-70
2023/10/08 05:47:06;;;;;;;6.43;3.10;;;13.00;99.90;;;;;;5056757;28;20422;-70
2023/10/08 05:49:54;;;;;;;6.87;3.43;;;13.00;99.90;;;;;;5055155;28;20438;-70
2023/10/08 05:52:28;;;;;;;6.70;3.20;;;12.90;99.90;;;;;;5056529;28;20410;-70
2023/10/08 05:55:15;;;;;;;6.83;3.30;;;12.90;99.90;;;;;;5056328;28;20507;-70
2023/10/08 05:57:52;;;;;;;5.97;3.03;;;12.90;99.90;;;;;;5056586;28;20418;-70
2023/10/08 06:03:11;;;;;;;7.60;3.13;;;13.00;99.90;;;;;;5056706;28;20880;-70
2023/10/08 06:05:47;;;;;;;5.93;3.30;;;13.00;99.90;;;;;;5056236;28;20454;-70
2023/10/08 06:08:21;;;;;;;6.37;2.83;;;13.00;99.90;;;;;;5056344;28;20476;-70
2023/10/08 06:11:00;;;;;;;6.90;3.77;;;13.00;99.90;;;;;;5056310;28;20429;-70
2023/10/08 06:13:44;;;;;;;9.97;3.47;;;13.00;99.90;;;;;;5054703;28;20555;-70
2023/10/08 06:16:30;;;;;;;4.67;2.77;;;13.00;99.90;;;;;;5056078;28;20458;-70
2023/10/08 06:18:59;;;;;;;6.30;3.03;;;13.00;99.90;;;;;;5056355;28;20454;-70
2023/10/08 06:21:27;;;;;;;6.07;3.00;;;13.00;99.90;;;;;;5054492;28;20442;-70
2023/10/08 06:23:57;;;;;;;5.83;2.90;;;13.00;99.90;;;;;;5055986;28;20468;-70
2023/10/08 06:26:26;;;;;;;5.03;3.30;;;13.00;99.90;;;;;;5055653;28;20975;-70
2023/10/08 06:28:57;;;;;;;6.57;3.50;;;13.00;99.90;;;;;;5054449;28;20446;-70
2023/10/08 06:31:26;;;;;;;5.63;3.13;;;13.00;99.90;;;;;;5055819;28;20418;-70
2023/10/08 06:33:54;;;;;;;6.30;3.20;;;13.00;99.90;;;;;;5055436;28;20470;-70
2023/10/08 06:36:24;;;;;;;4.80;2.40;;;13.10;99.90;;;;;;5054156;28;20516;-70
2023/10/08 06:38:52;;;;;;;5.50;2.83;;;13.10;99.90;;;;;;5055699;28;20487;-70
2023/10/08 06:41:29;;;;;;;5.53;3.00;;;13.10;99.90;;;;;;5055350;28;20951;-70
2023/10/08 06:44:16;;;;;;;5.17;2.73;;;13.10;99.90;;;;;;5054544;28;20568;-70
2023/10/08 06:46:45;;;;;;;5.57;2.90;;;13.10;99.90;;;;;;5055280;28;20438;-70
2023/10/08 06:49:15;;;;;;;8.70;3.30;;;13.10;99.90;;;;;;5055190;28;20438;-70
2023/10/08 06:51:44;;;;;;;5.60;2.60;;;13.10;99.90;;;;;;5055190;28;20430;-70
2023/10/08 06:54:13;;;;;;;6.70;2.83;;;13.10;99.90;;;;;;5053570;28;21058;-70
2023/10/08 06:56:46;;;;;;;6.57;2.57;;;13.10;99.90;;;;;;5055692;28;20505;-70
2023/10/08 06:59:16;;;;;;;5.03;3.00;;;13.10;99.90;;;;;;5053893;28;20440;-70
2023/10/08 07:01:46;;;;;;;5.73;3.20;;;13.20;99.90;;;;;;5055182;28;20438;-70
2023/10/08 07:04:15;;;;;;;4.70;2.93;;;13.20;99.90;;;;;;5054898;28;20469;-70
2023/10/08 07:06:45;;;;;;;10.23;3.30;;;13.20;99.90;;;;;;5054903;28;20473;-70
2023/10/08 07:09:22;;;;;;;6.60;3.27;;;13.20;99.90;;;;;;5055142;28;20443;-70
2023/10/08 07:11:54;;;;;;;4.50;3.20;;;13.20;99.90;;;;;;5055252;28;20430;-71
2023/10/08 07:14:26;;;;;;;8.83;3.63;;;13.20;99.90;;;;;;5054897;28;20464;-71
2023/10/08 07:16:58;;;;;;;5.13;2.77;;;13.30;99.90;;;;;;5054946;28;20414;-70
2023/10/08 07:19:32;;;;;;;7.23;3.20;;;13.30;99.90;;;;;;5055069;28;20426;-70
2023/10/08 07:22:06;;;;;;;6.70;2.93;;;13.30;99.90;;;;;;5055363;28;20423;-70
2023/10/08 07:24:36;;;;;;;6.07;2.77;;;13.30;99.90;;;;;;5054532;28;20544;-71
2023/10/08 07:27:08;;;;;;;5.10;2.70;;;13.40;99.90;;;;;;5054596;28;20557;-70
2023/10/08 07:29:37;;;;;;;7.90;2.80;;;13.40;99.90;;;;;;5053199;28;20438;-70
2023/10/08 07:32:11;;;;;;;4.73;3.13;;;13.40;99.90;;;;;;5054465;28;20441;-70
2023/10/08 07:34:39;;;;;;;7.57;2.87;;;13.40;99.90;;;;;;5054437;28;20489;-70
2023/10/08 07:37:11;;;;;;;6.00;2.30;;;13.40;99.90;;;;;;5054383;28;20980;-70
2023/10/08 07:39:46;;;;;;;5.77;2.23;;;13.40;99.90;;;;;;5054418;28;20454;-70
2023/10/08 07:42:16;;;;;;;6.37;2.90;;;13.50;99.90;;;;;;5054562;28;20505;-70
2023/10/08 07:44:44;;;;;;;7.47;2.37;;;13.50;99.90;;;;;;5054174;28;20464;-70
2023/10/08 07:47:14;;;;;;;5.73;2.73;;;13.50;99.90;;;;;;5057186;28;20434;-70
2023/10/08 07:49:44;;;;;;;11.20;3.50;;;13.50;99.90;;;;;;5059647;28;20438;-70
2023/10/08 07:52:15;;;;;;;4.70;2.47;;;13.60;99.90;;;;;;5057176;28;20491;-70
2023/10/08 07:54:44;;;;;;;8.33;3.00;;;13.60;99.90;;;;;;5058254;28;20482;-70
2023/10/08 07:57:17;;;;;;;4.90;2.47;;;13.60;99.90;;;;;;5055915;28;20997;-70
2023/10/08 07:59:47;;;;;;;4.03;2.03;;;13.70;99.90;;;;;;5054358;28;20529;-70
2023/10/08 08:02:20;;;;;;;7.23;2.60;;;13.70;99.90;;;;;;5055364;28;20440;-70
2023/10/08 08:04:52;;;;;;;7.07;2.33;;;13.70;99.90;;;;;;5055899;28;20465;-70
2023/10/08 08:07:21;;;;;;;7.83;2.50;;;13.80;99.90;;;;;;5053899;28;20840;-72
2023/10/08 08:09:51;;;;;;;3.80;2.07;;;13.80;99.90;;;;;;5054753;28;20438;-70
2023/10/08 08:12:22;;;;;;;7.13;2.60;;;13.80;99.90;;;;;;5054452;28;20418;-70
2023/10/08 08:14:52;;;;;;;6.83;2.20;;;13.80;99.90;;;;;;5053940;28;20473;-70
2023/10/08 08:17:22;;;;;;;5.30;1.97;;;13.90;99.90;;;;;;5054164;28;20430;-70
2023/10/08 08:19:52;;;;;;;5.07;1.70;;;13.90;99.90;;;;;;5053941;28;20521;-70
2023/10/08 08:22:22;;;;;;;4.80;2.30;;;13.90;99.90;;;;;;5053955;28;20438;-71
2023/10/08 08:24:54;;;;;;;4.30;2.07;;;13.90;99.90;;;;;;5052915;28;20472;-70
2023/10/08 08:27:31;;;;;;;6.23;1.90;;;13.90;99.90;;;;;;5053087;28;20516;-70
2023/10/08 08:30:11;;;;;;;8.57;2.50;;;14.00;99.90;;;;;;5053955;28;20487;-70
2023/10/08 08:32:40;;;;;;;4.77;2.37;;;14.00;99.90;;;;;;5053577;28;20506;-70
2023/10/08 08:35:16;;;;;;;8.13;2.10;;;14.10;99.90;;;;;;5053624;28;20510;-71
2023/10/08 08:37:46;;;;;;;4.17;2.00;;;14.10;99.90;;;;;;5053811;28;20513;-71
2023/10/08 08:40:18;;;;;;;4.90;2.13;;;14.10;99.90;;;;;;5053474;28;20445;-71
2023/10/08 08:42:47;;;;;;;11.20;2.70;;;14.10;99.90;;;;;;5053642;28;20427;-70
2023/10/08 08:45:20;;;;;;;6.80;2.60;;;14.10;99.90;;;;;;5053319;28;20485;-70
2023/10/08 08:47:49;;;;;;;6.50;2.63;;;14.20;99.90;;;;;;5052179;28;20430;-70
2023/10/08 08:50:19;;;;;;;5.90;2.50;;;14.20;99.90;;;;;;5053329;28;20495;-71
2023/10/08 08:52:47;;;;;;;5.47;2.10;;;14.30;99.90;;;;;;5053155;28;20461;-70
2023/10/08 08:55:16;;;;;;;6.23;2.70;;;14.30;99.90;;;;;;5053297;28;20561;-71
2023/10/08 08:57:50;;;;;;;7.47;2.23;;;14.30;99.90;;;;;;5053164;28;20858;-71
2023/10/08 09:00:25;;;;;;;7.13;2.03;;;14.30;99.90;;;;;;5053674;28;20427;-71
2023/10/08 09:02:55;;;;;;;7.73;2.27;;;14.30;99.90;;;;;;5053628;28;20429;-71
2023/10/08 09:05:33;;;;;;;5.10;2.10;;;14.30;99.90;;;;;;5054445;28;20462;-69
2023/10/08 09:08:03;;;;;;;7.50;2.27;;;14.40;99.90;;;;;;5054027;28;20438;-71
2023/10/08 09:10:36;;;;;;;4.97;2.30;;;14.40;99.90;;;;;;5052806;28;20449;-71
2023/10/08 09:13:07;;;;;;;5.40;2.27;;;14.50;99.90;;;;;;5053705;28;20438;-71
2023/10/08 09:15:37;;;;;;;5.80;2.37;;;14.50;99.90;;;;;;5052267;28;20505;-71
2023/10/08 09:18:06;;;;;;;7.77;2.90;;;14.60;99.90;;;;;;5055741;28;20774;-71
2023/10/08 09:20:42;;;;;;;5.97;1.80;;;14.60;99.90;;;;;;5057572;28;20441;-71
2023/10/08 09:23:13;;;;;;;5.87;2.03;;;14.70;99.90;;;;;;5057770;28;20513;-71
2023/10/08 09:25:42;;;;;;;5.67;2.47;;;14.70;99.90;;;;;;5057582;28;20523;-71
2023/10/08 09:28:12;;;;;;;7.00;2.50;;;14.70;99.90;;;;;;5057683;28;20934;-71
2023/10/08 09:30:44;;;;;;;4.80;2.13;;;14.70;99.90;;;;;;5057641;28;20418;-71
2023/10/08 09:33:14;;;;;;;11.20;2.77;;;14.80;99.90;;;;;;5057978;28;20444;-71
2023/10/08 09:35:44;;;;;;;4.30;1.70;;;14.80;99.90;;;;;;5057727;28;20465;-71
2023/10/08 09:38:12;;;;;;;4.77;1.87;;;14.80;99.90;;;;;;5057541;28;20795;-71
2023/10/08 09:40:41;;;;;;;3.90;2.13;;;14.80;99.90;;;;;;5056067;28;20456;-71
2023/10/08 09:43:11;;;;;;;4.47;2.23;;;14.90;99.90;;;;;;5056049;28;20881;-71
2023/10/08 09:45:42;;;;;;;4.50;2.07;;;14.90;99.90;;;;;;5057402;28;20449;-71
2023/10/08 09:48:16;;;;;;;4.03;1.87;;;15.00;99.90;;;;;;5057466;28;20786;-71
2023/10/08 09:50:47;;;;;;;4.33;1.87;;;15.00;99.90;;;;;;5057487;28;20787;-71
2023/10/08 09:53:17;;;;;;;4.73;1.90;;;15.00;99.90;;;;;;5057331;28;20418;-71
2023/10/08 09:55:48;;;;;;;6.47;2.30;;;15.00;99.90;;;;;;5057369;28;20470;-71
2023/10/08 09:58:18;;;;;;;3.93;1.77;;;15.00;99.90;;;;;;5058045;28;20422;-71
2023/10/08 10:00:48;;;;;;;4.50;2.13;;;15.10;99.90;;;;;;5057187;28;20896;-71
2023/10/08 10:03:20;;;;;;;4.87;2.03;;;15.10;99.90;;;;;;5057475;28;20419;-71
2023/10/08 10:05:50;;;;;;;5.23;1.93;;;15.20;99.90;;;;;;5057129;28;20464;-71
2023/10/08 10:08:20;;;;;;;6.57;1.97;;;15.20;99.90;;;;;;5057120;28;20475;-71
2023/10/08 10:10:58;;;;;;;5.80;2.00;;;15.30;99.90;;;;;;5057457;28;20434;-71
2023/10/08 10:13:30;;;;;;;5.60;2.07;;;15.30;99.90;;;;;;5057372;28;20846;-71
2023/10/08 10:15:59;;;;;;;4.83;2.30;;;15.30;99.90;;;;;;5056078;28;20478;-71
2023/10/08 10:18:34;;;;;;;5.93;2.23;;;15.30;99.90;;;;;;5055852;28;20799;-71
2023/10/08 10:21:27;;;;;;;6.20;2.43;;;15.30;99.90;;;;;;5054589;28;20491;-71
2023/10/08 10:23:56;;;;;;;6.90;2.83;;;15.30;99.90;;;;;;5055731;28;20445;-71
2023/10/08 10:26:30;;;;;;;10.13;3.67;;;15.30;99.90;;;;;;5055621;28;20450;-71
2023/10/08 10:29:26;;;;;;;8.73;3.97;;;15.40;99.90;;;;;;5055413;28;20497;-71
2023/10/08 10:31:56;;;;;;;7.47;3.80;;;15.30;99.90;;;;;;5055902;28;20783;-71
2023/10/08 10:34:28;;;;;;;5.13;4.00;;;15.30;99.90;;;;;;5054203;28;20491;-71
2023/10/08 10:37:02;;;;;;;8.63;4.50;;;15.30;99.90;;;;;;5054282;28;20472;-71
2023/10/08 10:39:33;;;;;;;8.67;3.67;;;15.40;99.90;;;;;;5055598;28;20942;-72
2023/10/08 10:42:05;;;;;;;6.53;3.27;;;15.40;99.90;;;;;;5055443;28;20789;-72
2023/10/08 10:44:36;;;;;;;5.73;3.03;;;15.40;99.90;;;;;;5055555;28;20422;-72
2023/10/08 10:47:26;;;;;;;7.10;2.70;;;15.40;99.90;;;;;;5055295;28;20422;-71
2023/10/08 10:52:53;;;;;;;7.20;3.20;;;15.40;99.90;;;;;;5091467;27;20892;-71
2023/10/08 10:55:22;;;;;;;8.03;3.10;;;15.40;99.90;;;;;;5090721;28;20479;-71
2023/10/08 10:57:55;;;;;;;6.50;3.00;;;15.40;99.90;;;;;;5091181;28;20420;-71
2023/10/08 11:03:16;;;;;;;4.63;2.10;;;15.50;99.90;;;;;;5090534;28;20447;-71
2023/10/08 11:05:51;;;;;;;6.03;2.50;;;15.50;99.90;;;;;;5091175;28;20844;-71
2023/10/08 11:08:23;;;;;;;6.27;2.77;;;15.50;99.90;;;;;;5091375;28;20424;-71
2023/10/08 11:10:58;;;;;;;3.07;2.33;;;15.50;99.90;;;;;;5090697;28;20526;-71
2023/10/08 11:13:37;;;;;;;7.23;2.67;;;15.50;99.90;;;;;;5091087;28;20423;-71
2023/10/08 11:16:07;;;;;;;6.70;2.80;;;15.50;99.90;;;;;;5089196;28;20450;-71
2023/10/08 11:18:37;;;;;;;12.00;4.20;;;15.50;99.90;;;;;;5091015;28;20433;-71
2023/10/08 11:21:15;;;;;;;5.47;2.93;;;15.50;99.90;;;;;;5090765;28;20421;-71
2023/10/08 11:23:52;;;;;;;5.50;3.50;;;15.50;99.90;;;;;;5090726;28;20431;-71
2023/10/08 11:26:31;;;;;;;9.23;3.57;;;15.50;99.90;;;;;;5090323;28;20845;-71
2023/10/08 11:29:02;;;;;;;4.80;2.90;;;15.60;99.90;;;;;;5090458;28;20416;-71
2023/10/08 11:31:33;;;;;;;5.00;3.57;;;15.60;99.90;;;;;;5090795;28;20551;-71
2023/10/08 11:34:08;;;;;;;5.93;2.90;;;15.60;99.90;;;;;;5090258;28;20490;-71
2023/10/08 11:36:48;;;;;;;7.40;3.30;;;15.60;99.90;;;;;;5090170;28;20510;-71
2023/10/08 11:39:30;;;;;;;5.83;3.17;;;15.60;99.90;;;;;;5090061;28;20423;-71
2023/10/08 11:42:02;;;;;;;6.07;3.17;;;15.70;99.90;;;;;;5090056;28;20425;-71
2023/10/08 11:44:35;;;;;;;6.23;3.10;;;15.60;99.90;;;;;;5090038;28;20413;-71
2023/10/08 11:47:11;;;;;;;5.60;2.60;;;15.70;99.90;;;;;;5089945;28;20852;-71
2023/10/08 11:49:46;;;;;;;5.53;2.50;;;15.60;99.90;;;;;;5090273;28;20937;-71
2023/10/08 11:52:16;;;;;;;4.50;2.77;;;15.60;99.90;;;;;;5088495;28;20529;-71
2023/10/08 11:54:48;;;;;;;5.93;3.00;;;15.60;99.90;;;;;;5089735;28;20476;-70
2023/10/08 11:57:21;;;;;;;4.83;3.30;;;15.60;99.90;;;;;;5088475;28;20453;-71
2023/10/08 11:59:52;;;;;;;6.70;3.40;;;15.70;99.90;;;;;;5090246;28;20470;-71
2023/10/08 12:02:21;;;;;;;8.23;3.03;;;15.70;99.90;;;;;;5086701;28;20397;-71
2023/10/08 12:04:49;;;;;;;6.43;3.20;;;15.70;99.90;;;;;;5075978;28;20489;-71
2023/10/08 12:07:19;;;;;;;7.60;2.97;;;15.70;99.90;;;;;;5075323;28;20460;-71
2023/10/08 12:09:49;;;;;;;4.63;2.60;;;15.70;99.90;;;;;;5076035;28;20870;-71
2023/10/08 12:12:22;;;;;;;5.33;3.03;;;15.80;99.90;;;;;;5076441;28;20500;-71
2023/10/08 12:14:54;;;;;;;5.87;3.10;;;15.80;99.90;;;;;;5076032;28;20511;-71
2023/10/08 12:17:37;;;;;;;7.23;4.37;;;15.80;99.90;;;;;;5076218;28;20426;-71
2023/10/08 12:20:22;;;;;;;9.20;3.50;;;15.90;99.90;;;;;;5074651;28;20428;-71
2023/10/08 12:22:50;;;;;;;6.90;2.90;;;15.90;99.90;;;;;;5075807;28;20479;-71
2023/10/08 12:25:20;;;;;;;5.00;2.10;;;16.00;99.90;;;;;;5075640;28;20456;-71
2023/10/08 12:27:49;;;;;;;6.67;2.57;;;16.00;99.90;;;;;;5076246;28;20437;-71
2023/10/08 12:30:17;;;;;;;6.17;2.20;;;16.00;99.90;;;;;;5075706;28;20404;-71
2023/10/08 12:32:46;;;;;;;4.53;2.00;;;16.00;99.90;;;;;;5075646;28;20985;-71
2023/10/08 12:35:14;;;;;;;5.53;2.13;;;16.00;99.90;;;;;;5075466;28;20449;-71
2023/10/08 12:37:44;;;;;;;5.40;1.87;;;16.00;99.90;;;;;;5075431;28;20441;-71
2023/10/08 12:40:22;;;;;;;6.07;2.40;;;16.10;99.90;;;;;;5075388;28;20516;-71
2023/10/08 12:42:52;;;;;;;5.20;2.27;;;16.00;99.90;;;;;;5075332;28;20517;-71
2023/10/08 12:45:21;;;;;;;7.30;3.30;;;16.00;99.90;;;;;;5075539;28;20428;-71
2023/10/08 12:47:50;;;;;;;4.47;2.33;;;16.10;99.90;;;;;;5075351;28;20531;-71
2023/10/08 12:50:28;;;;;;;4.10;1.97;;;16.00;99.90;;;;;;5075223;28;20433;-71
2023/10/08 12:52:57;;;;;;;4.57;2.13;;;16.00;99.90;;;;;;5075703;28;20848;-71
2023/10/08 12:55:25;;;;;;;7.87;2.47;;;16.10;99.90;;;;;;5075070;28;20453;-71
2023/10/08 12:58:03;;;;;;;5.80;2.33;;;16.10;99.90;;;;;;5075026;28;20439;-71
2023/10/08 13:00:31;;;;;;;6.47;2.50;;;16.20;99.90;;;;;;5075328;28;20905;-71
2023/10/08 13:03:05;;;;;;;2.83;1.33;;;16.20;99.90;;;;;;5074938;28;20411;-71
2023/10/08 13:05:34;;;;;;;3.70;2.40;;;16.20;99.90;;;;;;5074945;28;20464;-71
2023/10/08 13:08:09;;;;;;;6.90;2.23;;;16.30;99.90;;;;;;5074805;28;20439;-71
2023/10/08 13:10:41;;;;;;;5.47;1.60;;;16.30;99.90;;;;;;5074821;28;20391;-71
2023/10/08 13:13:12;;;;;;;2.80;1.90;;;16.40;99.90;;;;;;5074733;28;20461;-71
2023/10/08 13:15:41;;;;;;;7.03;2.13;;;16.50;99.90;;;;;;5074241;28;20428;-71
2023/10/08 13:18:10;;;;;;;7.90;2.27;;;16.50;99.90;;;;;;5074665;28;20866;-71
2023/10/08 13:20:40;;;;;;;5.57;1.80;;;16.50;99.90;;;;;;5074616;28;20444;-71
2023/10/08 13:23:09;;;;;;;6.83;4.10;;;16.60;99.90;;;;;;5074696;28;20921;-71
2023/10/08 13:25:39;;;;;;;4.60;1.90;;;16.60;99.90;;;;;;5074785;28;20531;-71
2023/10/08 13:28:09;;;;;;;4.60;1.77;;;16.70;99.90;;;;;;5074473;28;20465;-71